createdAt,value
2023-05-10T00:00:56.532Z,99005.11
2023-05-10T00:03:48.672Z,99006.39
2023-05-10T00:06:40.761Z,98998.76
2023-05-10T00:09:32.710Z,98999.72
2023-05-10T00:12:24.691Z,99000.86
2023-05-10T00:15:16.703Z,99004.48
2023-05-10T00:18:08.872Z,99000.42
2023-05-10T00:21:00.874Z,99002.70
2023-05-10T00:23:52.817Z,99003.11
2023-05-10T00:26:44.823Z,99006.27
2023-05-10T00:29:36.818Z,99000.58
2023-05-10T00:32:28.854Z,98997.77
2023-05-10T00:35:21.013Z,98997.68
2023-05-10T00:38:12.933Z,98997.98
2023-05-10T00:41:05.118Z,98995.81
2023-05-10T00:43:57.088Z,98991.08
2023-05-10T00:46:49.933Z,98992.20
2023-05-10T00:49:42.655Z,98990.83
2023-05-10T00:52:34.763Z,98990.78
2023-05-10T00:55:26.985Z,98990.27
2023-05-10T00:58:03.924Z,98986.52
2023-05-10T01:00:57.147Z,98984.66
2023-05-10T01:03:49.198Z,98982.63
2023-05-10T01:06:41.428Z,98982.84
2023-05-10T01:09:34.026Z,98977.74
2023-05-10T01:12:11.278Z,98976.73
2023-05-10T01:15:04.012Z,98976.77
2023-05-10T01:17:56.175Z,98976.85
2023-05-10T01:20:56.905Z,98973.25
2023-05-10T01:24:23.482Z,98970.70
2023-05-10T01:27:28.544Z,98970.67
2023-05-10T01:30:30.886Z,98972.58
2023-05-10T01:33:28.972Z,98972.46
2023-05-10T01:36:29.204Z,98975.13
2023-05-10T01:39:26.827Z,98969.96
2023-05-10T01:42:23.465Z,98972.52
2023-05-10T01:45:22.101Z,98965.17
2023-05-10T01:48:16.408Z,98969.08
2023-05-10T01:51:07.075Z,98962.51
2023-05-10T01:54:04.366Z,98960.52
2023-05-10T01:56:50.739Z,98960.66
2023-05-10T01:59:45.263Z,98958.52
2023-05-10T02:02:41.487Z,98954.93
2023-05-10T02:05:36.309Z,98951.42
2023-05-10T02:08:28.995Z,98947.80
2023-05-10T02:11:23.216Z,98948.17
2023-05-10T02:14:18.634Z,98951.58
2023-05-10T02:17:11.590Z,98944.82
2023-05-10T02:20:05.794Z,98941.11
2023-05-10T02:22:59.568Z,98939.69
2023-05-10T02:25:53.693Z,98935.11
2023-05-10T02:28:46.529Z,98932.05
2023-05-10T02:31:39.798Z,98930.69
2023-05-10T02:34:33.170Z,98929.94
2023-05-10T02:37:27.343Z,98936.67
2023-05-10T02:40:21.719Z,98930.52
2023-05-10T02:43:18.494Z,98933.70
2023-05-10T02:46:10.608Z,98932.81
2023-05-10T02:49:02.817Z,98931.82
2023-05-10T02:52:01.539Z,98934.63
2023-05-10T02:55:03.011Z,98939.29
2023-05-10T02:57:59.175Z,98930.58
2023-05-10T03:00:51.478Z,98935.65
2023-05-10T03:03:43.813Z,98930.09
2023-05-10T03:06:35.839Z,98931.55
2023-05-10T03:09:27.958Z,98934.27
2023-05-10T03:12:28.558Z,98938.05
2023-05-10T03:15:32.611Z,98938.90
2023-05-10T03:18:30.591Z,98934.34
2023-05-10T03:21:28.100Z,98934.69
2023-05-10T03:24:22.953Z,98928.05
2023-05-10T03:27:16.530Z,98928.52
2023-05-10T03:30:13.121Z,98929.83
2023-05-10T03:33:09.525Z,98933.28
2023-05-10T03:36:01.673Z,98932.09
2023-05-10T03:38:53.660Z,98929.52
2023-05-10T03:41:46.055Z,98931.61
2023-05-10T03:44:38.192Z,98928.20
2023-05-10T03:47:12.754Z,98926.02
2023-05-10T03:50:04.892Z,98926.69
2023-05-10T03:52:56.986Z,98921.80
2023-05-10T03:55:48.972Z,98923.96
2023-05-10T03:58:40.958Z,98925.06
2023-05-10T04:01:33.083Z,98927.08
2023-05-10T04:04:25.210Z,98926.23
2023-05-10T04:07:17.222Z,98928.61
2023-05-10T04:10:10.953Z,98923.88
2023-05-10T04:13:03.030Z,98922.89
2023-05-10T04:15:55.060Z,98925.02
2023-05-10T04:18:47.145Z,98926.98
2023-05-10T04:21:39.757Z,98925.85
2023-05-10T04:24:31.761Z,98928.26
2023-05-10T04:27:23.709Z,98929.94
2023-05-10T04:30:16.455Z,98931.23
2023-05-10T04:33:08.622Z,98928.91
2023-05-10T04:36:00.877Z,98928.58
2023-05-10T04:38:52.829Z,98929.62
2023-05-10T04:41:44.769Z,98927.69
2023-05-10T04:44:37.142Z,98924.53
2023-05-10T04:47:29.227Z,98927.58
2023-05-10T04:50:21.318Z,98927.16
2023-05-10T04:53:15.786Z,98925.30
2023-05-10T04:56:09.322Z,98926.02
2023-05-10T04:59:01.437Z,98930.16
2023-05-10T05:01:53.425Z,98923.34
2023-05-10T05:04:45.499Z,98919.77
2023-05-10T05:07:38.364Z,98922.41
2023-05-10T05:10:30.866Z,98917.52
2023-05-10T05:13:22.982Z,98917.92
2023-05-10T05:16:15.289Z,98911.70
2023-05-10T05:19:07.376Z,98913.98
2023-05-10T05:21:59.350Z,98909.29
2023-05-10T05:24:51.416Z,98909.39
2023-05-10T05:27:43.386Z,98905.91
2023-05-10T05:30:35.448Z,98906.37
2023-05-10T05:33:27.466Z,98907.73
2023-05-10T05:36:19.611Z,98900.71
2023-05-10T05:39:11.599Z,98899.69
2023-05-10T05:42:03.767Z,98897.15
2023-05-10T05:44:55.769Z,98892.66
2023-05-10T05:47:48.225Z,98893.79
2023-05-10T05:50:40.189Z,98895.45
2023-05-10T05:53:32.199Z,98894.69
2023-05-10T05:56:25.418Z,98893.79
2023-05-10T05:59:17.937Z,98892.63
2023-05-10T06:02:09.997Z,98891.80
2023-05-10T06:05:02.165Z,98892.67
2023-05-10T06:07:54.211Z,98889.55
2023-05-10T06:10:46.443Z,98883.51
2023-05-10T06:13:38.527Z,98886.73
2023-05-10T06:16:30.572Z,98886.78
2023-05-10T06:19:22.617Z,98887.20
2023-05-10T06:22:14.893Z,98889.49
2023-05-10T06:25:08.123Z,98890.31
2023-05-10T06:28:00.861Z,98896.62
2023-05-10T06:30:52.866Z,98899.68
2023-05-10T06:33:44.883Z,98900.71
2023-05-10T06:36:36.909Z,98895.40
2023-05-10T06:39:30.362Z,98888.98
2023-05-10T06:42:22.401Z,98893.49
2023-05-10T06:45:15.651Z,98894.50
2023-05-10T06:48:08.377Z,98889.12
2023-05-10T06:51:00.371Z,98891.48
2023-05-10T06:53:52.403Z,98899.10
2023-05-10T06:56:44.396Z,98895.61
2023-05-10T06:59:37.360Z,98892.55
2023-05-10T07:02:29.932Z,98890.80
2023-05-10T07:05:22.501Z,98890.85
2023-05-10T07:08:15.495Z,98888.89
2023-05-10T07:11:09.110Z,98888.09
2023-05-10T07:14:01.433Z,98884.15
2023-05-10T07:16:53.483Z,98885.32
2023-05-10T07:19:25.379Z,98885.52
2023-05-10T07:22:17.630Z,98881.45
2023-05-10T07:25:10.787Z,98878.48
2023-05-10T07:28:02.955Z,98877.91
2023-05-10T07:30:55.080Z,98878.21
2023-05-10T07:33:47.242Z,98873.05
2023-05-10T07:36:39.331Z,98875.80
2023-05-10T07:39:31.305Z,98881.48
2023-05-10T07:42:23.291Z,98874.79
2023-05-10T07:45:15.881Z,98874.83
2023-05-10T07:48:08.303Z,98872.05
2023-05-10T07:51:00.557Z,98864.58
2023-05-10T07:53:52.601Z,98866.68
2023-05-10T07:56:46.603Z,98863.11
2023-05-10T07:59:38.619Z,98861.29
2023-05-10T08:02:30.809Z,98859.39
2023-05-10T08:05:22.822Z,98853.55
2023-05-10T08:08:14.889Z,98856.80
2023-05-10T08:11:07.267Z,98860.33
2023-05-10T08:13:59.306Z,98853.21
2023-05-10T08:16:51.538Z,98855.59
2023-05-10T08:19:43.537Z,98856.52
2023-05-10T08:22:35.531Z,98849.09
2023-05-10T08:25:27.742Z,98851.50
2023-05-10T08:28:19.698Z,98852.90
2023-05-10T08:31:11.837Z,98850.20
2023-05-10T08:34:03.834Z,98853.31
2023-05-10T08:36:55.882Z,98855.02
2023-05-10T08:39:48.877Z,98856.92
2023-05-10T08:42:45.531Z,98858.51
2023-05-10T08:45:41.075Z,98856.02
2023-05-10T08:48:35.666Z,98844.62
2023-05-10T08:51:29.163Z,98845.23
2023-05-10T08:54:21.299Z,98850.09
2023-05-10T08:57:58.858Z,98852.05
2023-05-10T09:00:26.602Z,98852.61
2023-05-10T09:03:18.859Z,98852.61
2023-05-10T09:06:11.047Z,98854.13
2023-05-10T09:09:06.503Z,98859.71
2023-05-10T09:11:58.947Z,98853.20
2023-05-10T09:14:52.711Z,98846.70
2023-05-10T09:17:46.666Z,98844.92
2023-05-10T09:20:38.655Z,98851.94
2023-05-10T09:30:57.914Z,98846.66
2023-05-10T09:33:50.932Z,98847.45
2023-05-10T09:36:58.424Z,98850.71
2023-05-10T09:39:56.486Z,98846.08
2023-05-10T09:42:28.379Z,98847.38
2023-05-10T09:45:20.494Z,98841.69
2023-05-10T09:48:12.488Z,98852.04
2023-05-10T09:51:04.726Z,98850.52
2023-05-10T09:54:13.459Z,98837.90
2023-05-10T09:57:05.998Z,98840.45
2023-05-10T09:59:59.317Z,98845.83
2023-05-10T10:02:58.385Z,98843.61
2023-05-10T10:05:51.276Z,98839.33
2023-05-10T10:08:43.442Z,98835.87
2023-05-10T10:11:35.896Z,98831.58
2023-05-10T10:14:27.993Z,98828.13
2023-05-10T10:17:21.809Z,98819.88
2023-05-10T10:20:14.872Z,98822.50
2023-05-10T10:23:06.997Z,98820.43
2023-05-10T10:25:59.164Z,98812.73
2023-05-10T10:28:59.977Z,98807.58
2023-05-10T10:32:04.794Z,98803.69
2023-05-10T10:34:57.986Z,98808.87
2023-05-10T10:37:49.506Z,98809.00
2023-05-10T10:40:41.635Z,98803.52
2023-05-10T10:43:33.657Z,98802.42
2023-05-10T10:46:15.401Z,98799.15
2023-05-10T10:49:13.514Z,98796.17
2023-05-10T10:52:29.306Z,98790.73
2023-05-10T10:55:23.456Z,98793.81
2023-05-10T10:58:33.184Z,98787.38
2023-05-10T11:01:25.235Z,98781.95
2023-05-10T11:04:23.186Z,98779.87
2023-05-10T11:07:21.651Z,98781.52
2023-05-10T11:10:21.265Z,98782.10
2023-05-10T11:13:13.302Z,98786.90
2023-05-10T11:16:19.014Z,98786.59
2023-05-10T11:19:13.581Z,98780.52
2023-05-10T11:22:19.012Z,98774.33
2023-05-10T11:25:12.689Z,98773.11
2023-05-10T11:28:06.768Z,98773.79
2023-05-10T11:30:59.136Z,98772.23
2023-05-10T11:33:52.176Z,98775.95
2023-05-10T11:36:44.137Z,98770.91
2023-05-10T11:39:36.088Z,98768.10
2023-05-10T11:42:29.395Z,98765.13
2023-05-10T11:45:22.754Z,98761.20
2023-05-10T11:48:14.960Z,98754.88
2023-05-10T11:51:07.353Z,98762.84
2023-05-10T11:54:00.319Z,98754.29
2023-05-10T11:56:53.599Z,98751.04
2023-05-10T11:59:46.612Z,98745.70
2023-05-10T12:02:39.157Z,98747.69
2023-05-10T12:05:33.778Z,98748.46
2023-05-10T12:08:22.834Z,98747.56
2023-05-10T12:11:16.444Z,98751.89
2023-05-10T12:14:10.345Z,98751.59
2023-05-10T12:17:02.390Z,98754.41
2023-05-10T12:19:54.388Z,98754.21
2023-05-10T12:22:48.686Z,98749.17
2023-05-10T12:25:41.230Z,98741.52
2023-05-10T12:28:36.336Z,98743.60
2023-05-10T12:31:28.323Z,98741.89
2023-05-10T12:34:32.554Z,98745.64
2023-05-10T12:37:31.316Z,98744.27
2023-05-10T12:40:23.550Z,98747.66
2023-05-10T12:43:15.727Z,98744.66
2023-05-10T12:46:12.229Z,98738.30
2023-05-10T12:49:08.057Z,98739.23
2023-05-10T12:51:43.899Z,98738.42
2023-05-10T12:54:35.799Z,98735.35
2023-05-10T12:57:28.413Z,98725.82
2023-05-10T13:03:31.538Z,98724.16
2023-05-10T13:06:23.716Z,98723.90
2023-05-10T13:09:16.146Z,98720.04
2023-05-10T13:12:10.172Z,98719.95
2023-05-10T13:15:00.834Z,98721.42
2023-05-10T13:17:52.911Z,98713.60
2023-05-10T13:20:45.303Z,98707.42
2023-05-10T13:23:37.412Z,98706.33
2023-05-10T13:26:29.791Z,98693.17
2023-05-10T13:29:23.490Z,98703.05
2023-05-10T13:32:15.622Z,98699.88
2023-05-10T13:35:09.146Z,98699.73
2023-05-10T13:38:01.288Z,98707.33
2023-05-10T13:40:53.953Z,98707.84
2023-05-10T13:43:46.235Z,98701.69
2023-05-10T13:46:39.533Z,98690.70
2023-05-10T13:49:31.633Z,98689.63
2023-05-10T13:52:23.746Z,98688.59
2023-05-10T13:55:06.604Z,98685.73
2023-05-10T13:57:59.014Z,98682.43
2023-05-10T14:00:51.088Z,98681.67
2023-05-10T14:03:43.209Z,98676.22
2023-05-10T14:06:35.291Z,98679.30
2023-05-10T14:09:27.342Z,98674.93
2023-05-10T14:12:19.367Z,98677.14
2023-05-10T14:15:12.823Z,98671.45
2023-05-10T14:18:04.945Z,98669.20
2023-05-10T14:20:57.226Z,98674.73
2023-05-10T14:23:49.288Z,98669.27
2023-05-10T14:26:32.576Z,98673.17
2023-05-10T14:29:24.711Z,98667.56
2023-05-10T14:32:16.748Z,98670.65
2023-05-10T14:35:12.125Z,98671.79
2023-05-10T14:38:05.587Z,98665.27
2023-05-10T14:40:57.942Z,98660.23
2023-05-10T14:43:50.071Z,98657.69
2023-05-10T14:46:42.830Z,98655.36
2023-05-10T14:49:34.837Z,98658.91
2023-05-10T14:52:26.927Z,98655.16
2023-05-10T14:55:19.283Z,98657.44
2023-05-10T14:58:11.433Z,98657.55
2023-05-10T15:01:03.722Z,98655.19
2023-05-10T15:03:56.268Z,98659.16
2023-05-10T15:06:48.898Z,98655.60
2023-05-10T15:09:40.935Z,98656.80
2023-05-10T15:12:32.981Z,98658.35
2023-05-10T15:15:25.114Z,98658.60
2023-05-10T15:18:18.867Z,98658.97
2023-05-10T15:21:10.988Z,98662.41
2023-05-10T15:24:03.077Z,98658.06
2023-05-10T15:26:55.140Z,98652.70
2023-05-10T15:29:47.506Z,98653.61
2023-05-10T15:32:41.056Z,98653.76
2023-05-10T15:35:33.458Z,98652.77
2023-05-10T15:38:08.432Z,98653.86
2023-05-10T15:41:01.327Z,98652.08
2023-05-10T15:43:53.379Z,98653.23
2023-05-10T15:46:45.573Z,98653.64
2023-05-10T15:49:37.666Z,98653.16
2023-05-10T15:52:29.781Z,98656.34
2023-05-10T15:55:22.004Z,98660.95
2023-05-10T15:58:14.000Z,98660.39
2023-05-10T16:01:06.999Z,98659.68
2023-05-10T16:03:59.148Z,98657.73
2023-05-10T16:06:51.209Z,98659.50
2023-05-10T16:09:43.290Z,98662.14
2023-05-10T16:12:35.749Z,98665.52
2023-05-10T16:15:27.912Z,98666.44
2023-05-10T16:18:20.094Z,98667.73
2023-05-10T16:21:12.235Z,98669.98
2023-05-10T16:24:06.217Z,98667.52
2023-05-10T16:26:58.286Z,98666.33
2023-05-10T16:29:50.955Z,98670.60
2023-05-10T16:32:43.019Z,98675.61
2023-05-10T16:35:35.133Z,98672.95
2023-05-10T16:38:27.337Z,98673.56
2023-05-10T16:41:19.401Z,98679.34
2023-05-10T16:44:11.404Z,98682.91
2023-05-10T16:47:03.802Z,98680.98
2023-05-10T16:49:56.163Z,98689.13
2023-05-10T16:52:48.321Z,98696.33
2023-05-10T16:55:40.386Z,98695.52
2023-05-10T16:58:32.449Z,98693.95
2023-05-10T17:01:26.475Z,98696.41
2023-05-10T17:04:19.135Z,98696.31
2023-05-10T17:07:11.956Z,98701.31
2023-05-10T17:10:04.085Z,98701.97
2023-05-10T17:12:56.145Z,98704.73
2023-05-10T17:15:49.343Z,98706.95
2023-05-10T17:18:41.711Z,98708.13
2023-05-10T17:21:33.895Z,98714.73
2023-05-10T17:24:27.028Z,98715.36
2023-05-10T17:27:19.181Z,98713.69
2023-05-10T17:30:13.170Z,98714.34
2023-05-10T17:33:05.333Z,98719.17
2023-05-10T17:35:58.277Z,98715.58
2023-05-10T17:38:50.603Z,98716.84
2023-05-10T17:41:43.473Z,98721.65
2023-05-10T17:44:35.589Z,98721.61
2023-05-10T17:47:27.934Z,98724.55
2023-05-10T17:50:20.135Z,98728.21
2023-05-10T17:53:12.278Z,98731.98
2023-05-10T17:56:04.374Z,98736.91
2023-05-10T17:58:56.423Z,98739.49
2023-05-10T18:01:48.521Z,98742.21
2023-05-10T18:04:42.050Z,98746.17
2023-05-10T18:07:35.198Z,98742.67
2023-05-10T18:10:27.605Z,98749.46
2023-05-10T18:13:19.710Z,98752.21
2023-05-10T18:16:12.917Z,98752.17
2023-05-10T18:19:05.239Z,98753.08
2023-05-10T18:21:57.433Z,98756.72
2023-05-10T18:24:49.502Z,98758.69
2023-05-10T18:27:41.685Z,98763.34
2023-05-10T18:30:33.768Z,98766.10
2023-05-10T18:33:25.930Z,98765.46
2023-05-10T18:36:17.999Z,98768.74
2023-05-10T18:39:10.245Z,98771.52
2023-05-10T18:42:02.314Z,98777.05
2023-05-10T18:44:54.447Z,98779.27
2023-05-10T18:47:27.436Z,98781.14
2023-05-10T18:50:19.842Z,98785.79
2023-05-10T18:53:12.303Z,98786.73
2023-05-10T18:56:04.424Z,98786.02
2023-05-10T18:58:56.593Z,98791.98
2023-05-10T19:01:51.050Z,98796.20
2023-05-10T19:04:43.560Z,98805.48
2023-05-10T19:07:35.718Z,98805.19
2023-05-10T19:10:27.918Z,98804.18
2023-05-10T19:13:19.976Z,98804.64
2023-05-10T19:16:16.641Z,98809.14
2023-05-10T19:19:08.972Z,98806.30
2023-05-10T19:21:45.663Z,98813.34
2023-05-10T19:24:38.012Z,98815.23
2023-05-10T19:27:30.636Z,98809.27
2023-05-10T19:30:22.976Z,98811.57
2023-05-10T19:33:14.946Z,98814.47
2023-05-10T19:36:07.172Z,98813.92
2023-05-10T19:38:59.200Z,98821.36
2023-05-10T19:41:51.234Z,98823.25
2023-05-10T19:44:43.462Z,98821.55
2023-05-10T19:47:35.972Z,98823.63
2023-05-10T19:50:27.924Z,98820.88
2023-05-10T19:53:20.041Z,98819.70
2023-05-10T19:56:12.678Z,98817.46
2023-05-10T19:59:04.848Z,98822.38
2023-05-10T20:01:56.869Z,98824.02
2023-05-10T20:04:48.863Z,98821.59
2023-05-10T20:07:41.010Z,98825.40
2023-05-10T20:10:33.243Z,98822.02
2023-05-10T20:13:25.493Z,98825.71
2023-05-10T20:16:17.490Z,98825.98
2023-05-10T20:19:09.609Z,98823.06
2023-05-10T20:22:01.945Z,98824.86
2023-05-10T20:24:55.842Z,98822.67
2023-05-10T20:27:50.714Z,98828.42
2023-05-10T20:30:42.866Z,98826.17
2023-05-10T20:33:35.129Z,98825.00
2023-05-10T20:36:27.577Z,98823.34
2023-05-10T20:39:19.608Z,98820.09
2023-05-10T20:42:11.640Z,98817.67
2023-05-10T20:45:03.618Z,98818.90
2023-05-10T20:47:56.226Z,98820.82
2023-05-10T20:50:48.352Z,98826.43
2023-05-10T20:53:40.555Z,98826.77
2023-05-10T20:56:33.612Z,98828.02
2023-05-10T20:59:25.621Z,98829.10
2023-05-10T21:02:17.630Z,98831.15
2023-05-10T21:05:10.685Z,98829.90
2023-05-10T21:08:02.692Z,98832.88
2023-05-10T21:10:54.665Z,98833.69
2023-05-10T21:13:46.622Z,98833.76
2023-05-10T21:16:39.007Z,98834.79
2023-05-10T21:19:31.058Z,98840.50
2023-05-10T21:22:23.100Z,98838.91
2023-05-10T21:25:15.445Z,98835.98
2023-05-10T21:28:07.613Z,98841.39
2023-05-10T21:30:59.624Z,98839.38
2023-05-10T21:33:51.617Z,98844.77
2023-05-10T21:36:43.724Z,98846.20
2023-05-10T21:39:35.963Z,98852.77
2023-05-10T21:42:28.042Z,98855.84
2023-05-10T21:45:21.025Z,98854.20
2023-05-10T21:48:13.331Z,98850.20
2023-05-10T21:51:05.464Z,98855.64
2023-05-10T21:53:57.626Z,98854.87
2023-05-10T21:56:49.646Z,98854.63
2023-05-10T21:59:42.253Z,98856.00
2023-05-10T22:02:34.439Z,98855.98
2023-05-10T22:05:26.603Z,98854.09
2023-05-10T22:08:18.577Z,98855.16
2023-05-10T22:11:10.596Z,98855.07
2023-05-10T22:14:02.802Z,98856.84
2023-05-10T22:16:54.799Z,98854.41
2023-05-10T22:19:46.913Z,98855.55
2023-05-10T22:22:38.908Z,98857.08
2023-05-10T22:25:30.982Z,98858.29
2023-05-10T22:28:22.982Z,98862.12
2023-05-10T22:31:15.372Z,98862.50
2023-05-10T22:34:07.325Z,98862.39
2023-05-10T22:36:59.716Z,98868.94
2023-05-10T22:39:52.411Z,98864.48
2023-05-10T22:42:44.400Z,98870.67
2023-05-10T22:45:36.497Z,98871.05
2023-05-10T22:48:29.256Z,98870.52
2023-05-10T22:51:21.353Z,98874.34
2023-05-10T22:54:13.375Z,98877.48
2023-05-10T22:57:05.575Z,98878.52
2023-05-10T22:59:57.615Z,98876.67
2023-05-10T23:02:50.146Z,98879.88
2023-05-10T23:05:42.201Z,98883.61
2023-05-10T23:08:34.256Z,98882.87
2023-05-10T23:11:26.253Z,98882.86
2023-05-10T23:14:18.268Z,98885.98
2023-05-10T23:17:10.398Z,98882.85
2023-05-10T23:20:02.478Z,98883.98
2023-05-10T23:22:54.434Z,98885.11
2023-05-10T23:25:46.439Z,98887.55
2023-05-10T23:28:38.561Z,98882.94
2023-05-10T23:31:30.810Z,98883.00
2023-05-10T23:34:44.599Z,98878.64
2023-05-10T23:37:37.103Z,98883.69
2023-05-10T23:40:29.095Z,98882.45
2023-05-10T23:43:21.747Z,98883.27
2023-05-10T23:46:13.851Z,98888.09
2023-05-10T23:49:05.850Z,98891.95
2023-05-10T23:51:57.804Z,98889.85
2023-05-10T23:54:49.780Z,98890.91
2023-05-10T23:57:41.738Z,98889.56
